sensor_id;sensor_type;location;lat;lon;timestamp;temperature;humidity
56298;DHT22;42208;6.376;-10.782;2023-05-10T00:00:17;28.20;99.90
56298;DHT22;42208;6.376;-10.782;2023-05-10T00:02:46;28.20;99.90
56298;DHT22;42208;6.376;-10.782;2023-05-10T00:05:14;28.20;99.90
56298;DHT22;42208;6.376;-10.782;2023-05-10T00:07:42;28.20;99.90
56298;DHT22;42208;6.376;-10.782;2023-05-10T00:10:11;28.20;99.90
56298;DHT22;42208;6.376;-10.782;2023-05-10T00:12:40;28.20;99.90
56298;DHT22;42208;6.376;-10.782;2023-05-10T00:15:08;28.20;99.90
56298;DHT22;42208;6.376;-10.782;2023-05-10T00:17:37;28.20;99.90
56298;DHT22;42208;6.376;-10.782;2023-05-10T00:20:06;28.20;99.90
56298;DHT22;42208;6.376;-10.782;2023-05-10T00:22:34;28.20;99.90
56298;DHT22;42208;6.376;-10.782;2023-05-10T00:25:03;28.20;99.90
56298;DHT22;42208;6.376;-10.782;2023-05-10T00:27:32;28.20;99.90
56298;DHT22;42208;6.376;-10.782;2023-05-10T00:30:06;28.20;99.90
56298;DHT22;42208;6.376;-10.782;2023-05-10T00:32:35;28.10;99.90
56298;DHT22;42208;6.376;-10.782;2023-05-10T00:35:04;28.10;99.90
56298;DHT22;42208;6.376;-10.782;2023-05-10T00:37:33;28.20;99.90
56298;DHT22;42208;6.376;-10.782;2023-05-10T00:40:01;28.10;99.90
56298;DHT22;42208;6.376;-10.782;2023-05-10T00:42:29;28.10;99.90
56298;DHT22;42208;6.376;-10.782;2023-05-10T00:44:58;28.10;99.90
56298;DHT22;42208;6.376;-10.782;2023-05-10T00:47:26;28.10;99.90
56298;DHT22;42208;6.376;-10.782;2023-05-10T00:49:56;28.10;99.90
56298;DHT22;42208;6.376;-10.782;2023-05-10T00:52:24;28.10;99.90
56298;DHT22;42208;6.376;-10.782;2023-05-10T00:54:53;28.10;99.90
56298;DHT22;42208;6.376;-10.782;2023-05-10T00:57:21;28.10;99.90
56298;DHT22;42208;6.376;-10.782;2023-05-10T00:59:50;28.10;99.90
56298;DHT22;42208;6.376;-10.782;2023-05-10T01:02:19;28.10;99.90
56298;DHT22;42208;6.376;-10.782;2023-05-10T01:04:47;28.10;99.90
56298;DHT22;42208;6.376;-10.782;2023-05-10T01:07:17;28.10;99.90
56298;DHT22;42208;6.376;-10.782;2023-05-10T01:09:46;28.10;99.90
56298;DHT22;42208;6.376;-10.782;2023-05-10T01:12:15;28.10;99.90
56298;DHT22;42208;6.376;-10.782;2023-05-10T01:14:44;28.10;99.90
56298;DHT22;42208;6.376;-10.782;2023-05-10T01:17:12;27.90;99.90
56298;DHT22;42208;6.376;-10.782;2023-05-10T01:19:42;27.70;99.90
56298;DHT22;42208;6.376;-10.782;2023-05-10T01:33:35;26.00;99.90
56298;DHT22;42208;6.376;-10.782;2023-05-10T01:36:35;25.70;99.90
56298;DHT22;42208;6.376;-10.782;2023-05-10T01:39:15;25.40;99.90
56298;DHT22;42208;6.376;-10.782;2023-05-10T01:47:40;25.00;99.90
56298;DHT22;42208;6.376;-10.782;2023-05-10T01:50:24;25.00;99.90
56298;DHT22;42208;6.376;-10.782;2023-05-10T01:52:55;25.00;99.90
56298;DHT22;42208;6.376;-10.782;2023-05-10T01:55:27;25.00;99.90
56298;DHT22;42208;6.376;-10.782;2023-05-10T01:58:04;25.00;99.90
56298;DHT22;42208;6.376;-10.782;2023-05-10T02:00:34;25.00;99.90
56298;DHT22;42208;6.376;-10.782;2023-05-10T02:03:06;25.10;99.90
56298;DHT22;42208;6.376;-10.782;2023-05-10T02:05:38;25.20;99.90
56298;DHT22;42208;6.376;-10.782;2023-05-10T02:08:07;25.30;99.90
56298;DHT22;42208;6.376;-10.782;2023-05-10T02:10:37;25.20;99.90
56298;DHT22;42208;6.376;-10.782;2023-05-10T02:13:08;25.30;99.90
56298;DHT22;42208;6.376;-10.782;2023-05-10T02:15:39;25.20;99.90
56298;DHT22;42208;6.376;-10.782;2023-05-10T02:18:09;25.20;99.90
56298;DHT22;42208;6.376;-10.782;2023-05-10T02:20:39;25.10;99.90
56298;DHT22;42208;6.376;-10.782;2023-05-10T02:23:08;25.10;99.90
56298;DHT22;42208;6.376;-10.782;2023-05-10T02:25:38;25.20;99.90
56298;DHT22;42208;6.376;-10.782;2023-05-10T02:28:07;25.20;99.90
56298;DHT22;42208;6.376;-10.782;2023-05-10T02:30:36;25.20;99.90
56298;DHT22;42208;6.376;-10.782;2023-05-10T02:33:05;25.20;99.90
56298;DHT22;42208;6.376;-10.782;2023-05-10T02:35:34;25.20;99.90
56298;DHT22;42208;6.376;-10.782;2023-05-10T02:38:04;25.20;99.90
56298;DHT22;42208;6.376;-10.782;2023-05-10T02:40:33;25.10;99.90
56298;DHT22;42208;6.376;-10.782;2023-05-10T02:43:04;25.00;99.90
56298;DHT22;42208;6.376;-10.782;2023-05-10T02:45:35;25.10;99.90
56298;DHT22;42208;6.376;-10.782;2023-05-10T02:48:05;24.90;99.90
56298;DHT22;42208;6.376;-10.782;2023-05-10T02:50:34;25.00;99.90
56298;DHT22;42208;6.376;-10.782;2023-05-10T02:53:09;25.00;99.90
56298;DHT22;42208;6.376;-10.782;2023-05-10T02:55:40;25.00;99.90
56298;DHT22;42208;6.376;-10.782;2023-05-10T02:58:09;25.10;99.90
56298;DHT22;42208;6.376;-10.782;2023-05-10T03:00:38;25.10;99.90
56298;DHT22;42208;6.376;-10.782;2023-05-10T03:03:07;25.20;99.90
56298;DHT22;42208;6.376;-10.782;2023-05-10T03:05:35;25.20;99.90
56298;DHT22;42208;6.376;-10.782;2023-05-10T03:08:04;25.30;99.90
56298;DHT22;42208;6.376;-10.782;2023-05-10T03:10:36;25.30;99.90
56298;DHT22;42208;6.376;-10.782;2023-05-10T03:13:16;25.30;99.90
56298;DHT22;42208;6.376;-10.782;2023-05-10T03:16:10;25.30;99.90
56298;DHT22;42208;6.376;-10.782;2023-05-10T03:21:18;25.30;99.90
56298;DHT22;42208;6.376;-10.782;2023-05-10T03:23:59;25.30;99.90
56298;DHT22;42208;6.376;-10.782;2023-05-10T03:26:27;25.30;99.90
56298;DHT22;42208;6.376;-10.782;2023-05-10T03:29:17;25.30;99.90
56298;DHT22;42208;6.376;-10.782;2023-05-10T03:31:46;25.40;99.90
56298;DHT22;42208;6.376;-10.782;2023-05-10T03:34:15;25.40;99.90
56298;DHT22;42208;6.376;-10.782;2023-05-10T03:36:43;25.40;99.90
56298;DHT22;42208;6.376;-10.782;2023-05-10T03:39:11;25.40;99.90
56298;DHT22;42208;6.376;-10.782;2023-05-10T03:41:40;25.40;99.90
56298;DHT22;42208;6.376;-10.782;2023-05-10T03:44:08;25.40;99.90
56298;DHT22;42208;6.376;-10.782;2023-05-10T03:46:37;25.40;99.90
56298;DHT22;42208;6.376;-10.782;2023-05-10T03:49:05;25.40;99.90
56298;DHT22;42208;6.376;-10.782;2023-05-10T03:51:33;25.40;99.90
56298;DHT22;42208;6.376;-10.782;2023-05-10T03:54:02;25.40;99.90
56298;DHT22;42208;6.376;-10.782;2023-05-10T03:56:30;25.50;99.90
56298;DHT22;42208;6.376;-10.782;2023-05-10T03:58:59;25.50;99.90
56298;DHT22;42208;6.376;-10.782;2023-05-10T04:01:27;25.50;99.90
56298;DHT22;42208;6.376;-10.782;2023-05-10T04:03:56;25.50;99.90
56298;DHT22;42208;6.376;-10.782;2023-05-10T04:06:24;25.50;99.90
56298;DHT22;42208;6.376;-10.782;2023-05-10T04:08:54;25.50;99.90
56298;DHT22;42208;6.376;-10.782;2023-05-10T04:11:23;25.50;99.90
56298;DHT22;42208;6.376;-10.782;2023-05-10T04:13:51;25.50;99.90
56298;DHT22;42208;6.376;-10.782;2023-05-10T04:16:19;25.50;99.90
56298;DHT22;42208;6.376;-10.782;2023-05-10T04:18:48;25.60;99.90
56298;DHT22;42208;6.376;-10.782;2023-05-10T04:21:16;25.50;99.90
56298;DHT22;42208;6.376;-10.782;2023-05-10T04:23:44;25.60;99.90
56298;DHT22;42208;6.376;-10.782;2023-05-10T04:26:13;25.50;99.90
56298;DHT22;42208;6.376;-10.782;2023-05-10T04:28:41;25.50;99.90
56298;DHT22;42208;6.376;-10.782;2023-05-10T04:31:10;25.50;99.90
56298;DHT22;42208;6.376;-10.782;2023-05-10T04:33:39;25.50;99.90
56298;DHT22;42208;6.376;-10.782;2023-05-10T04:36:07;25.50;99.90
56298;DHT22;42208;6.376;-10.782;2023-05-10T04:38:35;25.50;99.90
56298;DHT22;42208;6.376;-10.782;2023-05-10T04:41:07;25.40;99.90
56298;DHT22;42208;6.376;-10.782;2023-05-10T04:43:36;25.50;99.90
56298;DHT22;42208;6.376;-10.782;2023-05-10T04:46:05;25.50;99.90
56298;DHT22;42208;6.376;-10.782;2023-05-10T04:48:34;25.50;99.90
56298;DHT22;42208;6.376;-10.782;2023-05-10T04:51:02;25.50;99.90
56298;DHT22;42208;6.376;-10.782;2023-05-10T04:53:31;25.50;99.90
56298;DHT22;42208;6.376;-10.782;2023-05-10T04:55:59;25.40;99.90
56298;DHT22;42208;6.376;-10.782;2023-05-10T04:58:27;25.40;99.90
56298;DHT22;42208;6.376;-10.782;2023-05-10T05:00:55;25.40;99.90
56298;DHT22;42208;6.376;-10.782;2023-05-10T05:03:24;25.40;99.90
56298;DHT22;42208;6.376;-10.782;2023-05-10T05:05:52;25.40;99.90
56298;DHT22;42208;6.376;-10.782;2023-05-10T05:08:20;25.40;99.90
56298;DHT22;42208;6.376;-10.782;2023-05-10T05:10:49;25.40;99.90
56298;DHT22;42208;6.376;-10.782;2023-05-10T05:13:17;25.20;99.90
56298;DHT22;42208;6.376;-10.782;2023-05-10T05:15:46;25.10;99.90
56298;DHT22;42208;6.376;-10.782;2023-05-10T05:18:14;24.90;99.90
56298;DHT22;42208;6.376;-10.782;2023-05-10T05:20:42;24.80;99.90
56298;DHT22;42208;6.376;-10.782;2023-05-10T05:23:11;24.90;99.90
56298;DHT22;42208;6.376;-10.782;2023-05-10T05:25:39;24.70;99.90
56298;DHT22;42208;6.376;-10.782;2023-05-10T05:28:08;24.70;99.90
56298;DHT22;42208;6.376;-10.782;2023-05-10T05:30:36;24.70;99.90
56298;DHT22;42208;6.376;-10.782;2023-05-10T05:33:04;24.70;99.90
56298;DHT22;42208;6.376;-10.782;2023-05-10T05:35:33;24.60;99.90
56298;DHT22;42208;6.376;-10.782;2023-05-10T05:38:01;24.60;99.90
56298;DHT22;42208;6.376;-10.782;2023-05-10T05:40:30;24.70;99.90
56298;DHT22;42208;6.376;-10.782;2023-05-10T05:42:58;24.70;99.90
56298;DHT22;42208;6.376;-10.782;2023-05-10T05:45:26;24.70;99.90
56298;DHT22;42208;6.376;-10.782;2023-05-10T05:47:54;24.70;99.90
56298;DHT22;42208;6.376;-10.782;2023-05-10T05:50:22;24.80;99.90
56298;DHT22;42208;6.376;-10.782;2023-05-10T05:52:51;24.80;99.90
56298;DHT22;42208;6.376;-10.782;2023-05-10T05:55:19;24.80;99.90
56298;DHT22;42208;6.376;-10.782;2023-05-10T05:57:48;24.80;99.90
56298;DHT22;42208;6.376;-10.782;2023-05-10T06:00:16;24.80;99.90
56298;DHT22;42208;6.376;-10.782;2023-05-10T06:02:45;24.80;99.90
56298;DHT22;42208;6.376;-10.782;2023-05-10T06:05:13;24.90;99.90
56298;DHT22;42208;6.376;-10.782;2023-05-10T06:07:42;24.90;99.90
56298;DHT22;42208;6.376;-10.782;2023-05-10T06:10:10;25.00;99.90
56298;DHT22;42208;6.376;-10.782;2023-05-10T06:12:39;25.00;99.90
56298;DHT22;42208;6.376;-10.782;2023-05-10T06:15:07;25.00;99.90
56298;DHT22;42208;6.376;-10.782;2023-05-10T06:17:35;25.00;99.90
56298;DHT22;42208;6.376;-10.782;2023-05-10T06:20:04;24.90;99.90
56298;DHT22;42208;6.376;-10.782;2023-05-10T06:22:33;24.90;99.90
56298;DHT22;42208;6.376;-10.782;2023-05-10T06:25:01;24.80;99.90
56298;DHT22;42208;6.376;-10.782;2023-05-10T06:27:30;24.80;99.90
56298;DHT22;42208;6.376;-10.782;2023-05-10T06:29:58;24.80;99.90
56298;DHT22;42208;6.376;-10.782;2023-05-10T06:32:39;24.80;99.90
56298;DHT22;42208;6.376;-10.782;2023-05-10T06:35:08;24.70;99.90
56298;DHT22;42208;6.376;-10.782;2023-05-10T06:37:36;24.60;99.90
56298;DHT22;42208;6.376;-10.782;2023-05-10T06:40:06;24.50;99.90
56298;DHT22;42208;6.376;-10.782;2023-05-10T06:42:34;24.40;99.90
56298;DHT22;42208;6.376;-10.782;2023-05-10T06:45:03;24.40;99.90
56298;DHT22;42208;6.376;-10.782;2023-05-10T06:47:31;24.40;99.90
56298;DHT22;42208;6.376;-10.782;2023-05-10T06:50:01;24.40;99.90
56298;DHT22;42208;6.376;-10.782;2023-05-10T06:52:29;24.40;99.90
56298;DHT22;42208;6.376;-10.782;2023-05-10T06:54:57;24.30;99.90
56298;DHT22;42208;6.376;-10.782;2023-05-10T06:57:25;24.40;99.90
56298;DHT22;42208;6.376;-10.782;2023-05-10T06:59:59;24.30;99.90
56298;DHT22;42208;6.376;-10.782;2023-05-10T07:02:27;24.30;99.90
56298;DHT22;42208;6.376;-10.782;2023-05-10T07:04:56;24.30;99.90
56298;DHT22;42208;6.376;-10.782;2023-05-10T07:07:27;24.20;99.90
56298;DHT22;42208;6.376;-10.782;2023-05-10T07:09:55;24.20;99.90
56298;DHT22;42208;6.376;-10.782;2023-05-10T07:12:24;24.20;99.90
56298;DHT22;42208;6.376;-10.782;2023-05-10T07:14:53;24.10;99.90
56298;DHT22;42208;6.376;-10.782;2023-05-10T07:17:21;24.10;99.90
56298;DHT22;42208;6.376;-10.782;2023-05-10T07:19:49;24.10;99.90
56298;DHT22;42208;6.376;-10.782;2023-05-10T07:22:18;24.10;99.90
56298;DHT22;42208;6.376;-10.782;2023-05-10T07:24:46;24.10;99.90
56298;DHT22;42208;6.376;-10.782;2023-05-10T07:27:14;24.10;99.90
56298;DHT22;42208;6.376;-10.782;2023-05-10T07:29:43;24.10;99.90
56298;DHT22;42208;6.376;-10.782;2023-05-10T07:32:11;24.10;99.90
56298;DHT22;42208;6.376;-10.782;2023-05-10T07:34:39;24.00;99.90
56298;DHT22;42208;6.376;-10.782;2023-05-10T07:37:08;24.00;99.90
56298;DHT22;42208;6.376;-10.782;2023-05-10T07:39:36;24.00;99.90
56298;DHT22;42208;6.376;-10.782;2023-05-10T07:42:04;24.00;99.90
56298;DHT22;42208;6.376;-10.782;2023-05-10T07:44:33;23.90;99.90
56298;DHT22;42208;6.376;-10.782;2023-05-10T07:47:01;24.00;99.90
56298;DHT22;42208;6.376;-10.782;2023-05-10T07:49:29;24.00;99.90
56298;DHT22;42208;6.376;-10.782;2023-05-10T07:51:58;23.90;99.90
56298;DHT22;42208;6.376;-10.782;2023-05-10T07:54:26;23.90;99.90
56298;DHT22;42208;6.376;-10.782;2023-05-10T07:56:54;23.90;99.90
56298;DHT22;42208;6.376;-10.782;2023-05-10T07:59:23;24.00;99.90
56298;DHT22;42208;6.376;-10.782;2023-05-10T08:01:51;24.00;99.90
56298;DHT22;42208;6.376;-10.782;2023-05-10T08:04:19;24.00;99.90
56298;DHT22;42208;6.376;-10.782;2023-05-10T08:06:48;24.00;99.90
56298;DHT22;42208;6.376;-10.782;2023-05-10T08:09:16;24.00;99.90
56298;DHT22;42208;6.376;-10.782;2023-05-10T08:11:45;24.10;99.90
56298;DHT22;42208;6.376;-10.782;2023-05-10T08:14:13;24.10;99.90
56298;DHT22;42208;6.376;-10.782;2023-05-10T08:16:41;24.10;99.90
56298;DHT22;42208;6.376;-10.782;2023-05-10T08:19:09;24.20;99.90
56298;DHT22;42208;6.376;-10.782;2023-05-10T08:21:38;24.20;99.90
56298;DHT22;42208;6.376;-10.782;2023-05-10T08:24:06;24.20;99.90
56298;DHT22;42208;6.376;-10.782;2023-05-10T08:26:35;24.30;99.90
56298;DHT22;42208;6.376;-10.782;2023-05-10T08:29:03;24.30;99.90
56298;DHT22;42208;6.376;-10.782;2023-05-10T08:31:31;24.30;99.90
56298;DHT22;42208;6.376;-10.782;2023-05-10T08:34:00;24.40;99.90
56298;DHT22;42208;6.376;-10.782;2023-05-10T08:36:30;24.40;99.90
56298;DHT22;42208;6.376;-10.782;2023-05-10T08:38:58;24.40;99.90
56298;DHT22;42208;6.376;-10.782;2023-05-10T08:41:27;24.40;99.90
56298;DHT22;42208;6.376;-10.782;2023-05-10T08:43:56;24.30;99.90
56298;DHT22;42208;6.376;-10.782;2023-05-10T08:46:26;24.40;99.90
56298;DHT22;42208;6.376;-10.782;2023-05-10T08:48:55;24.40;99.90
56298;DHT22;42208;6.376;-10.782;2023-05-10T08:51:24;24.40;99.90
56298;DHT22;42208;6.376;-10.782;2023-05-10T08:53:53;24.40;99.90
56298;DHT22;42208;6.376;-10.782;2023-05-10T08:56:22;24.30;99.90
56298;DHT22;42208;6.376;-10.782;2023-05-10T08:58:51;24.40;99.90
56298;DHT22;42208;6.376;-10.782;2023-05-10T09:01:20;24.40;99.90
56298;DHT22;42208;6.376;-10.782;2023-05-10T09:03:50;24.50;99.90
56298;DHT22;42208;6.376;-10.782;2023-05-10T09:06:18;24.40;99.90
56298;DHT22;42208;6.376;-10.782;2023-05-10T09:08:47;24.50;99.90
56298;DHT22;42208;6.376;-10.782;2023-05-10T09:11:16;24.50;99.90
56298;DHT22;42208;6.376;-10.782;2023-05-10T09:13:45;24.60;99.90
56298;DHT22;42208;6.376;-10.782;2023-05-10T09:16:14;24.60;99.90
56298;DHT22;42208;6.376;-10.782;2023-05-10T09:18:48;24.70;99.90
56298;DHT22;42208;6.376;-10.782;2023-05-10T09:21:19;24.70;99.90
56298;DHT22;42208;6.376;-10.782;2023-05-10T09:23:48;24.70;99.90
56298;DHT22;42208;6.376;-10.782;2023-05-10T09:26:16;24.70;99.90
56298;DHT22;42208;6.376;-10.782;2023-05-10T09:28:58;24.80;99.90
56298;DHT22;42208;6.376;-10.782;2023-05-10T09:34:18;24.90;99.90
56298;DHT22;42208;6.376;-10.782;2023-05-10T09:37:12;24.90;99.90
56298;DHT22;42208;6.376;-10.782;2023-05-10T09:39:40;25.00;99.90
56298;DHT22;42208;6.376;-10.782;2023-05-10T09:42:10;25.10;99.90
56298;DHT22;42208;6.376;-10.782;2023-05-10T09:44:38;25.00;99.90
56298;DHT22;42208;6.376;-10.782;2023-05-10T09:47:06;25.00;99.90
56298;DHT22;42208;6.376;-10.782;2023-05-10T09:49:34;25.10;99.90
56298;DHT22;42208;6.376;-10.782;2023-05-10T09:52:04;25.10;99.90
56298;DHT22;42208;6.376;-10.782;2023-05-10T09:54:34;25.00;99.90
56298;DHT22;42208;6.376;-10.782;2023-05-10T09:57:02;25.00;99.90
56298;DHT22;42208;6.376;-10.782;2023-05-10T09:59:33;25.10;99.90
56298;DHT22;42208;6.376;-10.782;2023-05-10T10:02:01;25.10;99.90
56298;DHT22;42208;6.376;-10.782;2023-05-10T10:04:30;25.10;99.90
56298;DHT22;42208;6.376;-10.782;2023-05-10T10:07:03;25.20;99.90
56298;DHT22;42208;6.376;-10.782;2023-05-10T10:09:33;25.20;99.90
56298;DHT22;42208;6.376;-10.782;2023-05-10T10:12:02;25.20;99.90
56298;DHT22;42208;6.376;-10.782;2023-05-10T10:14:31;25.20;99.90
56298;DHT22;42208;6.376;-10.782;2023-05-10T10:21:25;25.10;99.90
56298;DHT22;42208;6.376;-10.782;2023-05-10T10:23:54;25.10;99.90
56298;DHT22;42208;6.376;-10.782;2023-05-10T10:26:22;25.10;99.90
56298;DHT22;42208;6.376;-10.782;2023-05-10T10:31:44;25.10;99.90
56298;DHT22;42208;6.376;-10.782;2023-05-10T10:34:25;25.10;99.90
56298;DHT22;42208;6.376;-10.782;2023-05-10T10:36:55;25.10;99.90
56298;DHT22;42208;6.376;-10.782;2023-05-10T10:39:24;25.20;99.90
56298;DHT22;42208;6.376;-10.782;2023-05-10T10:41:57;25.20;99.90
56298;DHT22;42208;6.376;-10.782;2023-05-10T10:44:26;25.20;99.90
56298;DHT22;42208;6.376;-10.782;2023-05-10T10:47:05;25.20;99.90
56298;DHT22;42208;6.376;-10.782;2023-05-10T10:49:42;25.20;99.90
56298;DHT22;42208;6.376;-10.782;2023-05-10T10:57:56;25.20;99.90
56298;DHT22;42208;6.376;-10.782;2023-05-10T11:03:05;25.30;99.90
56298;DHT22;42208;6.376;-10.782;2023-05-10T11:05:34;25.30;99.90
56298;DHT22;42208;6.376;-10.782;2023-05-10T11:10:38;25.30;99.90
56298;DHT22;42208;6.376;-10.782;2023-05-10T11:13:08;25.30;99.90
56298;DHT22;42208;6.376;-10.782;2023-05-10T11:15:38;25.40;99.90
56298;DHT22;42208;6.376;-10.782;2023-05-10T11:18:20;25.40;99.90
56298;DHT22;42208;6.376;-10.782;2023-05-10T11:20:57;25.40;99.90
56298;DHT22;42208;6.376;-10.782;2023-05-10T11:26:08;25.60;99.90
56298;DHT22;42208;6.376;-10.782;2023-05-10T11:28:47;25.60;99.90
56298;DHT22;42208;6.376;-10.782;2023-05-10T11:31:20;25.60;99.90
56298;DHT22;42208;6.376;-10.782;2023-05-10T11:33:50;25.60;99.90
56298;DHT22;42208;6.376;-10.782;2023-05-10T11:36:24;25.60;99.90
56298;DHT22;42208;6.376;-10.782;2023-05-10T11:38:53;25.70;99.90
56298;DHT22;42208;6.376;-10.782;2023-05-10T11:41:23;25.70;99.90
56298;DHT22;42208;6.376;-10.782;2023-05-10T11:43:55;25.70;99.90
56298;DHT22;42208;6.376;-10.782;2023-05-10T11:46:25;25.70;99.90
56298;DHT22;42208;6.376;-10.782;2023-05-10T11:48:59;25.80;99.90
56298;DHT22;42208;6.376;-10.782;2023-05-10T11:51:28;25.90;99.90
56298;DHT22;42208;6.376;-10.782;2023-05-10T11:53:57;25.90;99.90
56298;DHT22;42208;6.376;-10.782;2023-05-10T11:56:25;26.00;99.90
56298;DHT22;42208;6.376;-10.782;2023-05-10T11:58:55;26.00;99.90
56298;DHT22;42208;6.376;-10.782;2023-05-10T12:01:27;26.00;99.90
56298;DHT22;42208;6.376;-10.782;2023-05-10T12:03:56;26.10;99.90
56298;DHT22;42208;6.376;-10.782;2023-05-10T12:06:30;26.10;99.90
56298;DHT22;42208;6.376;-10.782;2023-05-10T12:09:00;26.20;99.90
56298;DHT22;42208;6.376;-10.782;2023-05-10T12:11:37;26.20;99.90
56298;DHT22;42208;6.376;-10.782;2023-05-10T12:14:10;26.20;99.90
56298;DHT22;42208;6.376;-10.782;2023-05-10T12:16:38;26.30;99.90
56298;DHT22;42208;6.376;-10.782;2023-05-10T12:19:06;26.30;99.90
56298;DHT22;42208;6.376;-10.782;2023-05-10T12:21:35;26.30;99.90
56298;DHT22;42208;6.376;-10.782;2023-05-10T12:24:04;26.30;99.90
56298;DHT22;42208;6.376;-10.782;2023-05-10T12:26:32;26.40;99.90
56298;DHT22;42208;6.376;-10.782;2023-05-10T12:29:19;26.30;99.90
56298;DHT22;42208;6.376;-10.782;2023-05-10T12:31:54;26.40;99.90
56298;DHT22;42208;6.376;-10.782;2023-05-10T12:34:41;26.40;99.90
56298;DHT22;42208;6.376;-10.782;2023-05-10T12:37:09;26.50;99.90
56298;DHT22;42208;6.376;-10.782;2023-05-10T12:39:43;26.50;99.90
56298;DHT22;42208;6.376;-10.782;2023-05-10T12:42:12;26.60;99.90
56298;DHT22;42208;6.376;-10.782;2023-05-10T12:44:40;26.60;99.90
56298;DHT22;42208;6.376;-10.782;2023-05-10T12:47:08;26.60;99.90
56298;DHT22;42208;6.376;-10.782;2023-05-10T12:49:39;26.70;99.90
56298;DHT22;42208;6.376;-10.782;2023-05-10T12:52:07;26.70;99.90
56298;DHT22;42208;6.376;-10.782;2023-05-10T12:54:38;26.80;99.90
56298;DHT22;42208;6.376;-10.782;2023-05-10T12:57:06;26.80;99.90
56298;DHT22;42208;6.376;-10.782;2023-05-10T12:59:35;26.70;99.90
56298;DHT22;42208;6.376;-10.782;2023-05-10T13:02:05;26.80;99.90
56298;DHT22;42208;6.376;-10.782;2023-05-10T13:04:36;26.80;99.90
56298;DHT22;42208;6.376;-10.782;2023-05-10T13:07:04;26.80;99.90
56298;DHT22;42208;6.376;-10.782;2023-05-10T13:09:32;26.70;99.90
56298;DHT22;42208;6.376;-10.782;2023-05-10T13:12:01;26.80;99.90
56298;DHT22;42208;6.376;-10.782;2023-05-10T13:14:30;26.80;99.90
56298;DHT22;42208;6.376;-10.782;2023-05-10T13:16:58;26.90;99.90
56298;DHT22;42208;6.376;-10.782;2023-05-10T13:19:27;26.90;99.90
56298;DHT22;42208;6.376;-10.782;2023-05-10T13:21:55;26.90;99.90
56298;DHT22;42208;6.376;-10.782;2023-05-10T13:24:24;26.90;99.90
56298;DHT22;42208;6.376;-10.782;2023-05-10T13:26:52;27.00;99.90
56298;DHT22;42208;6.376;-10.782;2023-05-10T13:29:20;27.00;99.90
56298;DHT22;42208;6.376;-10.782;2023-05-10T13:31:48;27.00;99.90
56298;DHT22;42208;6.376;-10.782;2023-05-10T13:34:17;27.10;99.90
56298;DHT22;42208;6.376;-10.782;2023-05-10T13:36:46;27.10;99.90
56298;DHT22;42208;6.376;-10.782;2023-05-10T13:39:14;27.10;99.90
56298;DHT22;42208;6.376;-10.782;2023-05-10T13:41:43;27.10;99.90
56298;DHT22;42208;6.376;-10.782;2023-05-10T13:44:12;27.20;99.90
56298;DHT22;42208;6.376;-10.782;2023-05-10T13:46:41;27.20;99.90
56298;DHT22;42208;6.376;-10.782;2023-05-10T13:49:10;27.20;99.90
56298;DHT22;42208;6.376;-10.782;2023-05-10T13:51:40;27.20;99.90
56298;DHT22;42208;6.376;-10.782;2023-05-10T13:54:08;27.20;99.90
56298;DHT22;42208;6.376;-10.782;2023-05-10T13:56:41;27.20;99.90
56298;DHT22;42208;6.376;-10.782;2023-05-10T13:59:10;27.20;99.90
56298;DHT22;42208;6.376;-10.782;2023-05-10T14:01:38;27.20;99.90
56298;DHT22;42208;6.376;-10.782;2023-05-10T14:04:06;27.30;99.90
56298;DHT22;42208;6.376;-10.782;2023-05-10T14:06:35;27.30;99.90
56298;DHT22;42208;6.376;-10.782;2023-05-10T14:09:03;27.30;99.90
56298;DHT22;42208;6.376;-10.782;2023-05-10T14:11:31;27.30;99.90
56298;DHT22;42208;6.376;-10.782;2023-05-10T14:14:00;27.30;99.90
56298;DHT22;42208;6.376;-10.782;2023-05-10T14:16:28;27.30;99.90
56298;DHT22;42208;6.376;-10.782;2023-05-10T14:18:57;27.30;99.90
56298;DHT22;42208;6.376;-10.782;2023-05-10T14:21:25;27.40;99.90
56298;DHT22;42208;6.376;-10.782;2023-05-10T14:23:54;27.40;99.90
56298;DHT22;42208;6.376;-10.782;2023-05-10T14:26:22;27.30;99.90
56298;DHT22;42208;6.376;-10.782;2023-05-10T14:28:51;27.30;99.90
56298;DHT22;42208;6.376;-10.782;2023-05-10T14:31:19;27.30;99.90
56298;DHT22;42208;6.376;-10.782;2023-05-10T15:59:26;28.20;99.90
56298;DHT22;42208;6.376;-10.782;2023-05-10T16:01:55;28.10;99.90
56298;DHT22;42208;6.376;-10.782;2023-05-10T16:04:23;28.10;99.90
56298;DHT22;42208;6.376;-10.782;2023-05-10T16:06:55;28.10;99.90
56298;DHT22;42208;6.376;-10.782;2023-05-10T16:09:23;28.10;99.90
56298;DHT22;42208;6.376;-10.782;2023-05-10T16:11:51;28.10;99.90
56298;DHT22;42208;6.376;-10.782;2023-05-10T16:14:19;28.00;99.90
56298;DHT22;42208;6.376;-10.782;2023-05-10T16:16:48;28.00;99.90
56298;DHT22;42208;6.376;-10.782;2023-05-10T16:19:16;27.90;99.90
56298;DHT22;42208;6.376;-10.782;2023-05-10T16:21:45;27.90;99.90
56298;DHT22;42208;6.376;-10.782;2023-05-10T16:24:14;27.90;99.90
56298;DHT22;42208;6.376;-10.782;2023-05-10T16:26:42;27.90;99.90
56298;DHT22;42208;6.376;-10.782;2023-05-10T16:29:10;27.90;99.90
56298;DHT22;42208;6.376;-10.782;2023-05-10T16:31:38;27.80;99.90
56298;DHT22;42208;6.376;-10.782;2023-05-10T16:34:06;27.80;99.90
56298;DHT22;42208;6.376;-10.782;2023-05-10T16:36:35;27.70;99.90
56298;DHT22;42208;6.376;-10.782;2023-05-10T16:39:03;27.70;99.90
56298;DHT22;42208;6.376;-10.782;2023-05-10T16:41:34;27.70;99.90
56298;DHT22;42208;6.376;-10.782;2023-05-10T16:44:02;27.60;99.90
56298;DHT22;42208;6.376;-10.782;2023-05-10T16:46:30;27.60;99.90
56298;DHT22;42208;6.376;-10.782;2023-05-10T16:48:59;27.60;99.90
56298;DHT22;42208;6.376;-10.782;2023-05-10T16:51:27;27.60;99.90
56298;DHT22;42208;6.376;-10.782;2023-05-10T16:53:55;27.50;99.90
56298;DHT22;42208;6.376;-10.782;2023-05-10T16:56:23;27.50;99.90
56298;DHT22;42208;6.376;-10.782;2023-05-10T16:58:52;27.40;99.90
56298;DHT22;42208;6.376;-10.782;2023-05-10T17:01:20;27.40;99.90
56298;DHT22;42208;6.376;-10.782;2023-05-10T17:03:51;27.40;99.90
56298;DHT22;42208;6.376;-10.782;2023-05-10T17:06:19;27.40;99.90
56298;DHT22;42208;6.376;-10.782;2023-05-10T17:08:47;27.40;99.90
56298;DHT22;42208;6.376;-10.782;2023-05-10T17:11:16;27.40;99.90
56298;DHT22;42208;6.376;-10.782;2023-05-10T17:13:44;27.30;99.90
56298;DHT22;42208;6.376;-10.782;2023-05-10T17:16:12;27.30;99.90
56298;DHT22;42208;6.376;-10.782;2023-05-10T17:18:41;27.30;99.90
56298;DHT22;42208;6.376;-10.782;2023-05-10T17:21:09;27.30;99.90
56298;DHT22;42208;6.376;-10.782;2023-05-10T17:23:37;27.20;99.90
56298;DHT22;42208;6.376;-10.782;2023-05-10T17:26:06;27.20;99.90
56298;DHT22;42208;6.376;-10.782;2023-05-10T17:28:36;27.20;99.90
56298;DHT22;42208;6.376;-10.782;2023-05-10T17:31:04;27.10;99.90
56298;DHT22;42208;6.376;-10.782;2023-05-10T17:33:32;27.10;99.90
56298;DHT22;42208;6.376;-10.782;2023-05-10T17:36:00;27.10;99.90
56298;DHT22;42208;6.376;-10.782;2023-05-10T17:38:29;27.10;99.90